Mount Zion, Iowa
Current Conditions -  °F | °C
As of 4:15 AM on Thursday 23 Oct 2014 (Local Time) from KFFL Reporting Station
Broken Clouds Broken Clouds  
Wind Chill: 44°   Ceiling: 23000
Heat Index: 48°   Visibility: NA
Dew Point: 41°   Wind: 10mph
Humidity: 76%   Direction: 170°S
Pressure: 30.12"   Gusts: NA
Location:  40.7687°N, 92.0788°W
Report Text: KFFL 230915Z AUTO 17009KT SCT085 BKN230 09/05 A3012 RMK AO2
Loading
Personal Weather Stations






























Interactive Weather Map
Tropical Storm Tracking
New forecast layout! Learn more

10-Day Weather Forecast

Advertisements
Track Severe Weather on mobile